Time;durP1;ratioP1;P1;durP2;ratioP2;P2;SDS_P1;SDS_P2;PMS_P1;PMS_P2;Temp;Humidity;BMP_temperature;BMP_pressure;BME280_temperature;BME280_humidity;BME280_pressure;Samples;Min_cycle;Max_cycle;Signal;HPM_P1;HPM_P2
2021/06/14 00:00:20;;;;;;;3.35;3.00;;;23.80;51.80;;;;;;5092250;28;20658;-71
2021/06/14 00:02:45;;;;;;;3.00;2.70;;;23.70;51.80;;;;;;5092555;28;20251;-71
2021/06/14 00:05:35;;;;;;;3.28;2.70;;;23.70;51.90;;;;;;5092758;28;20762;-72
2021/06/14 00:08:01;;;;;;;3.10;2.80;;;23.70;51.90;;;;;;5091792;28;20181;-71
2021/06/14 00:10:27;;;;;;;3.05;2.75;;;23.70;51.90;;;;;;5093077;28;20187;-70
2021/06/14 00:12:53;;;;;;;2.70;2.50;;;23.70;52.00;;;;;;5092602;28;20218;-70
2021/06/14 00:15:19;;;;;;;3.28;2.88;;;23.70;51.90;;;;;;5096208;28;20257;-70
2021/06/14 00:17:44;;;;;;;3.72;3.13;;;23.70;52.00;;;;;;5096097;28;20216;-70
2021/06/14 00:20:11;;;;;;;3.45;2.60;;;23.70;52.00;;;;;;5096382;28;20226;-71
2021/06/14 00:22:37;;;;;;;3.42;3.00;;;23.70;52.00;;;;;;5096382;28;20595;-70
2021/06/14 00:25:05;;;;;;;2.70;2.50;;;23.70;52.00;;;;;;5096694;28;20185;-69
2021/06/14 00:27:30;;;;;;;2.70;2.50;;;23.70;52.00;;;;;;5095908;28;20174;-69
2021/06/14 00:29:56;;;;;;;2.85;2.65;;;23.70;52.00;;;;;;5096318;28;20688;-69
2021/06/14 00:32:21;;;;;;;3.65;3.25;;;23.70;52.00;;;;;;5096656;28;20189;-71
2021/06/14 00:34:47;;;;;;;2.55;2.35;;;23.70;52.00;;;;;;5095548;28;20211;-71
2021/06/14 00:37:12;;;;;;;3.13;2.83;;;23.70;52.00;;;;;;5096423;28;20173;-71
2021/06/14 00:39:38;;;;;;;2.97;2.67;;;23.70;51.90;;;;;;5096286;28;20214;-71
2021/06/14 00:42:04;;;;;;;3.72;2.35;;;23.60;51.90;;;;;;5095926;28;20170;-70
2021/06/14 00:44:29;;;;;;;2.78;2.58;;;23.60;51.90;;;;;;5096060;28;20209;-71
2021/06/14 00:46:55;;;;;;;3.00;2.80;;;23.60;52.00;;;;;;5096349;28;20209;-70
2021/06/14 00:49:20;;;;;;;3.38;2.35;;;23.60;52.00;;;;;;5095553;28;20174;-70
2021/06/14 00:51:46;;;;;;;4.18;2.78;;;23.60;52.00;;;;;;5096059;28;20197;-70
2021/06/14 00:54:11;;;;;;;2.90;2.38;;;23.60;52.00;;;;;;5094758;28;20580;-68
2021/06/14 00:56:37;;;;;;;2.75;2.35;;;23.60;52.00;;;;;;5094977;28;20173;-69
2021/06/14 00:59:02;;;;;;;2.67;2.47;;;23.60;52.00;;;;;;5096048;28;20174;-70
2021/06/14 01:01:28;;;;;;;2.97;2.63;;;23.60;52.00;;;;;;5096012;28;20272;-70
2021/06/14 01:03:53;;;;;;;2.78;2.40;;;23.60;52.00;;;;;;5094872;28;20256;-71
2021/06/14 01:06:19;;;;;;;2.42;2.22;;;23.60;52.00;;;;;;5096003;28;20174;-71
2021/06/14 01:08:46;;;;;;;2.85;2.65;;;23.60;52.00;;;;;;5095610;28;20177;-70
2021/06/14 01:11:32;;;;;;;3.08;2.80;;;23.50;51.90;;;;;;5094029;28;20213;-69
2021/06/14 01:14:34;;;;;;;4.35;3.15;;;23.60;52.00;;;;;;5094636;28;20169;-68
2021/06/14 01:17:08;;;;;;;3.45;2.53;;;23.50;52.00;;;;;;5089336;28;20639;-70
2021/06/14 01:20:02;;;;;;;2.53;2.33;;;23.50;52.00;;;;;;5093880;28;20220;-70
2021/06/14 01:22:33;;;;;;;3.78;2.80;;;23.50;52.00;;;;;;5095773;28;20231;-69
2021/06/14 01:25:19;;;;;;;3.10;2.80;;;23.50;52.00;;;;;;5093637;28;20235;-69
2021/06/14 01:27:47;;;;;;;3.60;2.67;;;23.50;52.00;;;;;;5095490;28;20235;-69
2021/06/14 01:30:18;;;;;;;2.78;2.58;;;23.50;52.00;;;;;;5095528;28;20185;-70
2021/06/14 01:32:43;;;;;;;2.90;2.60;;;23.50;52.00;;;;;;5093074;28;20214;-71
2021/06/14 01:35:10;;;;;;;2.65;2.42;;;23.50;52.00;;;;;;5094249;28;20606;-71
2021/06/14 01:37:42;;;;;;;3.33;2.90;;;23.50;52.00;;;;;;5094417;28;20268;-71
2021/06/14 01:40:08;;;;;;;2.78;2.20;;;23.50;52.00;;;;;;5076999;28;20536;-71
2021/06/14 01:42:34;;;;;;;2.70;2.50;;;23.50;52.00;;;;;;5093589;28;20647;-70
2021/06/14 01:44:59;;;;;;;3.03;2.60;;;23.50;52.00;;;;;;5076763;28;20174;-71
2021/06/14 01:47:25;;;;;;;2.90;2.47;;;23.50;52.00;;;;;;5076919;28;20166;-70
2021/06/14 01:49:50;;;;;;;3.00;2.70;;;23.50;52.00;;;;;;5094749;28;20197;-70
2021/06/14 01:52:16;;;;;;;3.17;2.53;;;23.40;52.00;;;;;;5076254;28;20257;-70
2021/06/14 01:54:41;;;;;;;3.08;2.72;;;23.50;52.00;;;;;;5076475;28;20547;-69
2021/06/14 01:57:07;;;;;;;2.92;2.65;;;23.40;52.00;;;;;;5093793;28;20173;-70
2021/06/14 01:59:35;;;;;;;3.20;2.92;;;23.40;52.00;;;;;;5092635;28;20515;-70
2021/06/14 02:02:02;;;;;;;3.70;3.15;;;23.40;52.00;;;;;;5093618;28;20704;-70
2021/06/14 02:04:28;;;;;;;2.75;2.55;;;23.40;52.00;;;;;;5094644;28;20210;-71
2021/06/14 02:06:56;;;;;;;3.58;3.28;;;23.40;52.00;;;;;;5075896;28;20173;-71
2021/06/14 02:09:22;;;;;;;3.42;2.80;;;23.40;51.90;;;;;;5076550;28;20536;-69
2021/06/14 02:11:50;;;;;;;2.92;2.60;;;23.40;51.90;;;;;;5093353;28;20180;-69
2021/06/14 02:14:18;;;;;;;3.30;3.00;;;23.40;51.90;;;;;;5075879;28;20185;-69
2021/06/14 02:16:43;;;;;;;2.60;2.40;;;23.40;52.00;;;;;;5092955;28;20173;-70
2021/06/14 02:19:09;;;;;;;3.30;3.00;;;23.40;52.00;;;;;;5093088;28;20232;-69
2021/06/14 02:21:35;;;;;;;2.60;2.40;;;23.40;52.00;;;;;;5093410;28;20693;-70
2021/06/14 02:24:00;;;;;;;3.10;2.80;;;23.30;52.00;;;;;;5094436;28;20214;-69
2021/06/14 02:26:25;;;;;;;3.40;2.90;;;23.30;51.90;;;;;;5094503;28;20200;-68
2021/06/14 02:28:51;;;;;;;3.22;2.92;;;23.30;52.00;;;;;;5093245;28;20272;-69
2021/06/14 02:31:17;;;;;;;2.75;2.45;;;23.40;52.00;;;;;;5094294;28;20603;-70
2021/06/14 02:33:42;;;;;;;2.63;2.42;;;23.30;51.90;;;;;;5093369;28;20671;-71
2021/06/14 02:36:08;;;;;;;3.35;2.65;;;23.30;51.90;;;;;;5093888;28;20636;-71
2021/06/14 02:38:33;;;;;;;2.80;2.55;;;23.30;51.90;;;;;;5094091;28;20246;-71
2021/06/14 02:40:59;;;;;;;4.22;3.05;;;23.30;52.00;;;;;;5092539;28;20173;-70
2021/06/14 02:43:24;;;;;;;3.90;3.20;;;23.30;52.00;;;;;;5075847;28;20205;-70
2021/06/14 02:45:50;;;;;;;3.13;2.83;;;23.30;52.00;;;;;;5075719;28;20178;-71
2021/06/14 02:48:19;;;;;;;2.85;2.65;;;23.30;51.90;;;;;;5092149;28;20169;-70
2021/06/14 02:50:44;;;;;;;3.28;2.92;;;23.30;52.00;;;;;;5075417;28;20582;-68
2021/06/14 02:53:13;;;;;;;3.35;3.05;;;23.30;52.00;;;;;;5093756;28;20174;-69
2021/06/14 02:56:17;;;;;;;2.90;2.63;;;23.30;52.00;;;;;;5092791;28;20174;-69
2021/06/14 02:58:44;;;;;;;3.53;2.97;;;23.30;52.00;;;;;;5084283;28;20189;-70
2021/06/14 03:01:10;;;;;;;4.07;3.03;;;23.30;52.00;;;;;;5092720;28;20586;-71
2021/06/14 03:03:36;;;;;;;3.30;3.00;;;23.30;51.90;;;;;;5091666;28;20718;-71
2021/06/14 03:06:03;;;;;;;3.65;3.28;;;23.20;51.90;;;;;;5092628;28;20177;-71
2021/06/14 03:08:29;;;;;;;3.97;3.10;;;23.20;52.00;;;;;;5092440;28;20544;-71
2021/06/14 03:10:55;;;;;;;3.47;2.50;;;23.20;52.00;;;;;;5074824;28;20209;-70
2021/06/14 03:13:20;;;;;;;3.55;2.97;;;23.20;51.90;;;;;;5075483;28;20212;-70
2021/06/14 03:15:46;;;;;;;3.83;2.90;;;23.20;52.00;;;;;;5075279;28;20165;-70
2021/06/14 03:18:12;;;;;;;3.20;2.90;;;23.20;52.00;;;;;;5074739;28;20173;-70
2021/06/14 03:20:39;;;;;;;3.22;2.90;;;23.20;52.00;;;;;;5093144;28;20170;-71
2021/06/14 03:23:04;;;;;;;2.83;2.63;;;23.20;52.00;;;;;;5091711;28;20296;-69
2021/06/14 03:25:30;;;;;;;4.60;2.95;;;23.20;52.00;;;;;;5074660;28;20205;-69
2021/06/14 03:27:55;;;;;;;3.30;2.70;;;23.20;52.00;;;;;;5093400;28;20310;-69
2021/06/14 03:30:21;;;;;;;3.00;2.78;;;23.20;52.00;;;;;;5091895;28;20186;-70
2021/06/14 03:32:47;;;;;;;2.92;2.72;;;23.20;52.00;;;;;;5074612;28;20577;-71
2021/06/14 03:35:13;;;;;;;3.67;3.28;;;23.20;52.00;;;;;;5092162;28;20253;-72
2021/06/14 03:37:39;;;;;;;3.67;3.00;;;23.10;52.00;;;;;;5091089;28;20177;-72
2021/06/14 03:40:05;;;;;;;3.33;2.97;;;23.20;52.00;;;;;;5075293;28;20249;-71
2021/06/14 03:42:31;;;;;;;3.13;2.90;;;23.10;51.90;;;;;;5091491;28;20265;-71
2021/06/14 03:44:57;;;;;;;3.00;2.70;;;23.10;51.90;;;;;;5091171;28;20316;-72
2021/06/14 03:47:22;;;;;;;3.85;2.80;;;23.10;51.90;;;;;;5093170;28;20173;-71
2021/06/14 03:49:48;;;;;;;4.43;3.05;;;23.10;51.90;;;;;;5092113;28;20631;-71
2021/06/14 03:52:13;;;;;;;3.45;3.15;;;23.10;51.90;;;;;;5092187;28;20235;-70
2021/06/14 03:54:39;;;;;;;3.42;2.95;;;23.10;51.90;;;;;;5092742;28;20638;-70
2021/06/14 03:57:05;;;;;;;3.88;2.85;;;23.20;51.90;;;;;;5092895;28;20177;-70
2021/06/14 03:59:31;;;;;;;3.10;2.83;;;23.10;51.90;;;;;;5092153;28;20224;-70
2021/06/14 04:01:56;;;;;;;3.08;2.78;;;23.10;51.90;;;;;;5093223;28;20181;-71
2021/06/14 04:06:59;;;;;;;3.30;3.00;;;23.10;51.90;;;;;;5092280;28;20227;-71
2021/06/14 04:09:24;;;;;;;3.58;2.90;;;23.10;51.80;;;;;;5092631;28;20173;-71
2021/06/14 04:11:50;;;;;;;3.75;3.10;;;23.10;51.80;;;;;;5092412;28;20687;-70
2021/06/14 04:14:15;;;;;;;3.92;3.20;;;23.10;51.80;;;;;;5092075;28;20256;-70
2021/06/14 04:16:41;;;;;;;3.40;3.10;;;23.10;51.80;;;;;;5092789;28;20276;-71
2021/06/14 04:19:07;;;;;;;3.40;3.05;;;23.10;51.80;;;;;;5092556;28;20308;-71
2021/06/14 04:21:32;;;;;;;3.97;3.00;;;23.20;51.90;;;;;;5091871;28;20170;-71
2021/06/14 04:23:58;;;;;;;3.40;3.10;;;23.20;51.90;;;;;;5092651;28;20384;-70
2021/06/14 04:26:23;;;;;;;3.40;3.03;;;23.10;51.80;;;;;;5092126;28;20181;-70
2021/06/14 04:28:52;;;;;;;3.75;3.45;;;23.10;51.80;;;;;;5092243;28;20683;-70
2021/06/14 04:31:17;;;;;;;3.20;3.00;;;23.10;51.80;;;;;;5092892;28;20162;-71
2021/06/14 04:33:43;;;;;;;3.38;3.08;;;23.10;51.80;;;;;;5091742;28;20524;-72
2021/06/14 04:36:08;;;;;;;3.33;2.78;;;23.10;51.80;;;;;;5092578;28;20507;-72
2021/06/14 04:38:36;;;;;;;4.47;3.00;;;23.20;51.90;;;;;;5092321;28;20550;-72
2021/06/14 04:41:02;;;;;;;3.65;3.33;;;23.10;51.80;;;;;;5092025;28;20170;-72
2021/06/14 04:43:28;;;;;;;3.28;2.97;;;23.10;51.80;;;;;;5092606;28;20300;-71
2021/06/14 04:45:53;;;;;;;3.50;2.83;;;23.20;51.90;;;;;;5092202;28;20176;-71
2021/06/14 04:48:19;;;;;;;3.35;3.05;;;23.10;51.80;;;;;;5091876;28;20223;-71
2021/06/14 04:50:45;;;;;;;3.78;3.13;;;23.20;51.90;;;;;;5092259;28;20166;-71
2021/06/14 04:53:10;;;;;;;4.07;3.67;;;23.10;51.80;;;;;;5092324;28;20235;-70
2021/06/14 04:55:36;;;;;;;3.70;3.40;;;23.20;51.90;;;;;;5090961;28;20186;-69
2021/06/14 04:58:02;;;;;;;3.72;3.20;;;23.10;51.80;;;;;;5092641;28;20504;-69
2021/06/14 05:00:28;;;;;;;2.97;2.78;;;23.10;51.80;;;;;;5094782;28;20185;-70
2021/06/14 05:02:54;;;;;;;4.05;3.25;;;23.10;51.90;;;;;;5094987;28;20202;-71
2021/06/14 05:05:19;;;;;;;3.38;3.00;;;23.20;51.90;;;;;;5095929;28;20222;-72
2021/06/14 05:07:45;;;;;;;3.53;3.22;;;23.20;51.90;;;;;;5095559;28;20258;-70
2021/06/14 05:10:10;;;;;;;4.78;3.30;;;23.20;51.90;;;;;;5095274;28;20266;-70
2021/06/14 05:12:36;;;;;;;3.83;3.00;;;23.20;51.90;;;;;;5095515;28;20231;-69
2021/06/14 05:15:01;;;;;;;3.53;3.17;;;23.10;51.90;;;;;;5095827;28;20173;-70
2021/06/14 05:17:27;;;;;;;3.47;3.17;;;23.20;52.00;;;;;;5095197;28;20180;-70
2021/06/14 05:19:52;;;;;;;3.47;3.17;;;23.20;51.90;;;;;;5094927;28;20817;-70
2021/06/14 05:22:18;;;;;;;3.38;3.08;;;23.10;51.90;;;;;;5095509;28;20222;-70
2021/06/14 05:24:43;;;;;;;3.28;2.75;;;23.20;52.00;;;;;;5094348;28;20250;-69
2021/06/14 05:27:09;;;;;;;3.28;2.97;;;23.20;52.00;;;;;;5095547;28;20206;-69
2021/06/14 05:29:35;;;;;;;3.53;3.15;;;23.20;52.00;;;;;;5094803;28;20299;-70
2021/06/14 05:32:00;;;;;;;3.92;3.63;;;23.20;52.00;;;;;;5095136;28;20165;-71
2021/06/14 05:34:26;;;;;;;3.67;3.38;;;23.20;52.00;;;;;;5095504;28;20178;-72
2021/06/14 05:36:52;;;;;;;3.92;2.88;;;23.20;52.00;;;;;;5094313;28;20178;-72
2021/06/14 05:39:17;;;;;;;3.83;3.38;;;23.20;52.00;;;;;;5095406;28;20184;-72
2021/06/14 05:41:43;;;;;;;4.03;2.97;;;23.20;52.00;;;;;;5095000;28;20174;-73
2021/06/14 05:44:08;;;;;;;3.88;3.30;;;23.20;52.00;;;;;;5094200;28;20602;-71
2021/06/14 05:46:34;;;;;;;3.60;3.30;;;23.20;52.00;;;;;;5094758;28;20170;-72
2021/06/14 05:49:02;;;;;;;3.58;3.28;;;23.20;52.10;;;;;;5095096;28;20227;-71
2021/06/14 05:51:28;;;;;;;3.60;3.30;;;23.20;52.80;;;;;;5094240;28;20197;-71
2021/06/14 05:53:53;;;;;;;3.58;3.28;;;23.20;52.10;;;;;;5094784;28;20213;-70
2021/06/14 05:56:19;;;;;;;3.38;3.10;;;23.20;52.10;;;;;;5094739;28;20265;-69
2021/06/14 05:58:44;;;;;;;4.03;3.42;;;23.20;52.10;;;;;;5093974;28;20231;-70
2021/06/14 06:01:10;;;;;;;3.72;2.90;;;23.20;52.00;;;;;;5094409;28;20205;-71
2021/06/14 06:03:35;;;;;;;3.60;3.30;;;23.20;52.00;;;;;;5094430;28;20730;-71
2021/06/14 06:06:01;;;;;;;3.42;3.13;;;23.20;52.00;;;;;;5093991;28;20546;-72
2021/06/14 06:08:26;;;;;;;3.08;2.88;;;23.30;52.10;;;;;;5094561;28;20623;-71
2021/06/14 06:10:52;;;;;;;3.55;3.22;;;23.20;52.00;;;;;;5094036;28;20178;-70
2021/06/14 06:13:17;;;;;;;4.07;3.67;;;23.20;52.00;;;;;;5093039;28;20224;-70
2021/06/14 06:15:43;;;;;;;3.70;3.33;;;23.20;52.00;;;;;;5094197;28;20262;-70
2021/06/14 06:18:08;;;;;;;3.38;3.08;;;23.20;52.00;;;;;;5094498;28;20170;-71
2021/06/14 06:20:34;;;;;;;3.30;3.00;;;23.30;52.00;;;;;;5093048;28;20214;-71
2021/06/14 06:23:00;;;;;;;3.50;3.20;;;23.30;52.00;;;;;;5094274;28;20209;-71
2021/06/14 06:25:25;;;;;;;3.15;2.88;;;23.20;52.00;;;;;;5094550;28;20215;-70
2021/06/14 06:27:51;;;;;;;3.42;3.13;;;23.30;52.00;;;;;;5093224;28;20178;-70
2021/06/14 06:30:21;;;;;;;3.55;3.25;;;23.30;52.00;;;;;;5094373;28;20200;-71
2021/06/14 06:32:47;;;;;;;3.50;3.20;;;23.30;52.10;;;;;;5091891;28;20186;-72
2021/06/14 06:35:13;;;;;;;3.45;3.15;;;23.30;52.10;;;;;;5093320;28;20177;-73
2021/06/14 06:37:38;;;;;;;3.72;3.15;;;23.20;52.00;;;;;;5094000;28;20174;-72
2021/06/14 06:40:07;;;;;;;3.20;2.90;;;23.30;52.00;;;;;;5093524;28;20170;-72
2021/06/14 06:42:33;;;;;;;3.20;3.00;;;23.30;52.00;;;;;;5093757;28;20173;-72
2021/06/14 06:44:59;;;;;;;3.53;3.22;;;23.30;52.00;;;;;;5094004;28;20178;-71
2021/06/14 06:47:24;;;;;;;3.60;3.30;;;23.30;52.10;;;;;;5093295;28;20176;-71
2021/06/14 06:49:50;;;;;;;3.72;3.33;;;23.30;52.10;;;;;;5093563;28;20282;-71
2021/06/14 06:52:15;;;;;;;3.17;2.85;;;23.30;52.10;;;;;;5093816;28;20526;-69
2021/06/14 06:54:41;;;;;;;3.50;3.20;;;23.30;52.10;;;;;;5092918;28;20174;-70
2021/06/14 06:57:07;;;;;;;5.30;3.35;;;23.30;52.10;;;;;;5093633;28;20181;-70
2021/06/14 06:59:33;;;;;;;3.50;3.20;;;23.30;52.00;;;;;;5092225;28;20177;-72
2021/06/14 07:01:58;;;;;;;3.17;2.90;;;23.30;52.10;;;;;;5092977;28;20193;-72
2021/06/14 07:04:24;;;;;;;3.25;2.78;;;23.30;52.10;;;;;;5093492;28;20244;-72
2021/06/14 07:06:49;;;;;;;3.88;2.85;;;23.30;52.20;;;;;;5093495;28;20265;-72
2021/06/14 07:09:15;;;;;;;3.95;3.55;;;23.30;52.20;;;;;;5092992;28;20201;-71
2021/06/14 07:11:40;;;;;;;3.22;2.92;;;23.40;52.20;;;;;;5093457;28;20196;-70
2021/06/14 07:14:06;;;;;;;3.55;3.22;;;23.40;52.30;;;;;;5093546;28;20271;-70
2021/06/14 07:16:33;;;;;;;3.20;2.90;;;23.30;52.20;;;;;;5092412;28;20177;-70
2021/06/14 07:19:00;;;;;;;3.25;3.00;;;23.40;52.30;;;;;;5093088;28;20744;-71
2021/06/14 07:21:25;;;;;;;5.97;3.13;;;23.40;52.40;;;;;;5093502;28;20174;-71
2021/06/14 07:23:52;;;;;;;3.22;2.80;;;23.40;52.40;;;;;;5091536;28;20228;-71
2021/06/14 07:26:21;;;;;;;5.55;3.20;;;23.40;52.40;;;;;;5093335;28;20197;-70
2021/06/14 07:28:46;;;;;;;3.92;2.90;;;23.40;52.30;;;;;;5093083;28;20173;-71
2021/06/14 07:31:12;;;;;;;3.83;3.42;;;23.40;52.40;;;;;;5092482;28;20255;-72
2021/06/14 07:33:38;;;;;;;4.70;3.60;;;23.50;52.40;;;;;;5092791;28;20213;-73
2021/06/14 07:36:04;;;;;;;3.22;2.95;;;23.40;52.40;;;;;;5093227;28;20283;-72
2021/06/14 07:38:29;;;;;;;6.43;3.35;;;23.50;53.10;;;;;;5092356;28;20206;-74
2021/06/14 07:40:55;;;;;;;6.50;3.63;;;23.50;52.40;;;;;;5092951;28;20174;-74
2021/06/14 07:43:20;;;;;;;4.95;3.67;;;23.40;52.40;;;;;;5092255;28;20307;-73
2021/06/14 07:45:46;;;;;;;3.83;3.00;;;23.50;52.60;;;;;;5093022;28;20169;-74
2021/06/14 07:48:12;;;;;;;7.80;3.53;;;23.50;52.50;;;;;;5093111;28;20223;-72
2021/06/14 07:50:38;;;;;;;4.40;3.88;;;23.50;52.50;;;;;;5092166;28;20234;-72
2021/06/14 07:53:04;;;;;;;4.90;3.10;;;23.50;52.50;;;;;;5093271;28;20202;-71
2021/06/14 07:55:30;;;;;;;4.60;3.17;;;23.50;52.50;;;;;;5092750;28;20231;-71
2021/06/14 07:57:55;;;;;;;6.55;3.72;;;23.50;52.40;;;;;;5092432;28;20174;-72
2021/06/14 08:00:21;;;;;;;4.85;3.80;;;23.50;52.40;;;;;;5093098;28;20196;-72
2021/06/14 08:02:47;;;;;;;5.43;3.35;;;23.50;52.40;;;;;;5092520;28;20177;-74
2021/06/14 08:05:13;;;;;;;4.90;3.50;;;23.50;52.40;;;;;;5092455;28;20178;-74
2021/06/14 08:07:38;;;;;;;5.03;3.83;;;23.60;52.40;;;;;;5092492;28;20181;-71
2021/06/14 08:10:06;;;;;;;5.65;3.30;;;23.60;52.40;;;;;;5092868;28;20177;-71
2021/06/14 08:12:33;;;;;;;5.05;2.92;;;23.60;52.30;;;;;;5091881;28;20279;-71
2021/06/14 08:14:59;;;;;;;3.90;3.20;;;23.60;52.40;;;;;;5092861;28;20260;-72
2021/06/14 08:17:26;;;;;;;4.68;3.45;;;23.60;52.30;;;;;;5092693;28;20210;-72
2021/06/14 08:19:57;;;;;;;4.95;3.83;;;23.60;53.00;;;;;;5090467;28;20233;-71
2021/06/14 08:25:26;;;;;;;3.63;3.20;;;23.70;52.30;;;;;;4990257;28;20189;-71
2021/06/14 08:27:51;;;;;;;6.68;3.45;;;23.70;52.30;;;;;;4990757;28;20177;-70
2021/06/14 08:30:24;;;;;;;4.07;3.65;;;23.70;52.30;;;;;;5037649;28;20197;-72
2021/06/14 08:32:50;;;;;;;4.60;3.35;;;23.70;52.30;;;;;;5091787;28;20606;-73
2021/06/14 08:35:17;;;;;;;3.72;3.15;;;23.70;52.30;;;;;;5094908;28;20179;-74
2021/06/14 08:37:44;;;;;;;4.45;3.53;;;23.70;52.30;;;;;;5096251;28;20235;-74
2021/06/14 08:40:10;;;;;;;3.78;3.20;;;23.70;52.30;;;;;;5095823;28;20178;-73
2021/06/14 08:42:36;;;;;;;5.43;3.45;;;23.70;52.30;;;;;;5095909;28;20201;-74
2021/06/14 08:45:01;;;;;;;5.50;3.88;;;23.80;52.30;;;;;;5096379;28;20253;-74
2021/06/14 08:47:28;;;;;;;3.72;3.20;;;23.80;52.30;;;;;;5095666;28;20197;-73
2021/06/14 08:49:53;;;;;;;3.80;3.10;;;23.80;52.30;;;;;;5096145;28;20182;-72
2021/06/14 08:52:19;;;;;;;4.85;3.08;;;23.80;52.30;;;;;;5078184;28;20176;-71
2021/06/14 08:54:45;;;;;;;6.10;3.90;;;23.80;52.30;;;;;;5094040;28;20174;-71
2021/06/14 08:57:13;;;;;;;3.88;2.90;;;23.80;52.30;;;;;;5096222;28;20639;-71
2021/06/14 08:59:39;;;;;;;4.07;3.67;;;23.80;52.30;;;;;;5095915;28;20204;-72
2021/06/14 09:02:05;;;;;;;4.43;3.58;;;23.90;52.40;;;;;;5095429;28;20177;-73
2021/06/14 09:04:32;;;;;;;3.85;3.30;;;23.90;52.40;;;;;;5095661;28;20693;-75
2021/06/14 09:06:57;;;;;;;4.78;3.35;;;23.90;52.40;;;;;;5095958;28;20184;-73
2021/06/14 09:09:23;;;;;;;4.05;3.40;;;23.90;52.40;;;;;;5094954;28;20265;-72
2021/06/14 09:11:52;;;;;;;4.05;3.65;;;23.90;52.40;;;;;;5095491;28;20177;-72
2021/06/14 09:14:19;;;;;;;6.38;3.03;;;23.90;52.30;;;;;;5095842;28;20192;-71
2021/06/14 09:16:45;;;;;;;3.83;3.45;;;23.90;52.40;;;;;;5094675;28;20220;-72
2021/06/14 09:19:24;;;;;;;4.82;3.15;;;23.90;52.40;;;;;;5095483;28;20229;-72
2021/06/14 09:21:54;;;;;;;3.63;3.10;;;24.00;52.40;;;;;;5094322;28;20177;-72
2021/06/14 09:24:20;;;;;;;3.42;3.13;;;24.00;52.40;;;;;;5094238;28;20611;-71
2021/06/14 09:26:46;;;;;;;3.85;2.80;;;24.00;52.40;;;;;;5095187;28;20174;-71
2021/06/14 09:29:13;;;;;;;3.58;3.10;;;24.00;52.40;;;;;;5076702;28;20177;-72
2021/06/14 09:31:38;;;;;;;4.30;3.20;;;24.00;52.40;;;;;;5095067;28;20170;-72
2021/06/14 09:34:04;;;;;;;4.70;3.42;;;24.00;52.40;;;;;;5095274;28;20260;-73
2021/06/14 09:36:30;;;;;;;5.93;3.15;;;24.00;52.40;;;;;;5092954;28;20228;-74
2021/06/14 09:39:17;;;;;;;3.78;3.13;;;24.00;52.40;;;;;;5095420;28;20174;-73
2021/06/14 09:41:48;;;;;;;4.18;3.20;;;24.00;52.40;;;;;;5095015;28;20308;-73
2021/06/14 09:44:14;;;;;;;3.40;3.03;;;24.00;52.30;;;;;;5094375;28;20296;-72
2021/06/14 09:46:39;;;;;;;4.47;3.72;;;24.00;52.30;;;;;;5093879;28;20209;-73
2021/06/14 09:49:05;;;;;;;3.30;3.00;;;24.10;52.30;;;;;;5095119;28;20184;-73
2021/06/14 09:51:32;;;;;;;4.38;3.30;;;24.10;52.30;;;;;;5093938;28;20616;-72
2021/06/14 09:53:57;;;;;;;3.97;3.30;;;24.10;52.30;;;;;;5094986;28;20188;-71
2021/06/14 09:56:25;;;;;;;4.20;2.80;;;24.30;52.40;;;;;;5095005;28;20253;-71
2021/06/14 09:58:52;;;;;;;3.80;3.20;;;24.20;52.40;;;;;;5093868;28;20235;-71
2021/06/14 10:01:25;;;;;;;4.95;3.67;;;24.10;52.30;;;;;;5094660;28;20643;-73
2021/06/14 10:03:51;;;;;;;5.22;3.40;;;24.20;52.30;;;;;;5094107;28;20271;-74
2021/06/14 10:06:46;;;;;;;5.25;3.25;;;24.20;52.30;;;;;;5094841;28;20201;-75
2021/06/14 10:09:13;;;;;;;3.92;3.25;;;24.20;52.30;;;;;;5094569;28;20670;-73
2021/06/14 10:11:39;;;;;;;4.10;2.90;;;24.20;52.30;;;;;;5093681;28;20189;-71
2021/06/14 10:14:18;;;;;;;6.68;3.67;;;24.20;52.40;;;;;;5094182;28;20192;-70
2021/06/14 10:16:45;;;;;;;6.00;3.20;;;24.20;52.40;;;;;;5094432;28;20257;-71
2021/06/14 10:19:12;;;;;;;5.05;3.58;;;24.20;52.60;;;;;;5093559;28;20180;-70
2021/06/14 10:21:42;;;;;;;6.47;3.47;;;24.20;53.30;;;;;;5094153;28;20265;-72
2021/06/14 10:24:10;;;;;;;4.50;2.80;;;24.20;53.90;;;;;;5094243;28;20764;-72
2021/06/14 10:26:40;;;;;;;7.13;3.38;;;24.20;53.20;;;;;;5093252;28;20178;-73
2021/06/14 10:29:07;;;;;;;5.20;3.75;;;24.20;52.90;;;;;;5094359;28;20174;-73
2021/06/14 10:31:34;;;;;;;5.05;3.40;;;24.20;53.00;;;;;;5094173;28;20201;-75
2021/06/14 10:34:00;;;;;;;7.40;3.67;;;24.20;52.90;;;;;;5093643;28;20208;-75
2021/06/14 10:36:26;;;;;;;7.38;3.55;;;24.20;53.20;;;;;;5094202;28;20174;-72
2021/06/14 10:38:53;;;;;;;3.97;3.05;;;24.20;53.50;;;;;;5093810;28;20212;-74
2021/06/14 10:41:19;;;;;;;5.35;2.85;;;24.10;53.10;;;;;;5093212;28;20178;-73
2021/06/14 10:43:45;;;;;;;7.40;3.42;;;24.20;53.00;;;;;;5093465;28;20214;-71
2021/06/14 10:46:17;;;;;;;11.00;3.72;;;24.10;53.00;;;;;;5092029;28;20176;-73
2021/06/14 10:48:46;;;;;;;6.68;3.28;;;24.10;53.40;;;;;;5092384;28;20239;-75
2021/06/14 10:51:17;;;;;;;8.05;3.58;;;24.20;53.20;;;;;;5092599;28;20166;-75
2021/06/14 10:53:42;;;;;;;8.07;3.97;;;24.10;53.10;;;;;;5093326;28;20181;-73
2021/06/14 10:56:08;;;;;;;6.13;3.80;;;24.10;53.10;;;;;;5093920;28;20181;-72
2021/06/14 10:58:33;;;;;;;5.38;3.50;;;24.10;53.00;;;;;;5093416;28;20178;-72
2021/06/14 11:00:59;;;;;;;7.80;3.33;;;24.10;53.00;;;;;;5093118;28;20542;-69
2021/06/14 11:03:45;;;;;;;10.13;3.88;;;24.10;52.90;;;;;;5093539;28;20690;-71
2021/06/14 11:06:23;;;;;;;4.32;3.22;;;24.20;53.10;;;;;;5093609;28;20256;-72
2021/06/14 11:09:04;;;;;;;6.22;3.00;;;24.20;53.10;;;;;;5092778;28;20562;-75
2021/06/14 11:11:31;;;;;;;4.65;3.00;;;24.20;53.10;;;;;;5093765;28;20543;-71
2021/06/14 11:13:56;;;;;;;7.13;3.85;;;24.20;52.90;;;;;;5093597;28;20173;-74
2021/06/14 11:16:23;;;;;;;8.70;3.40;;;24.20;52.80;;;;;;5092932;28;20174;-78
2021/06/14 11:18:51;;;;;;;5.50;3.92;;;24.20;52.90;;;;;;5092738;28;20636;-76
2021/06/14 11:21:18;;;;;;;5.57;3.90;;;24.20;52.80;;;;;;5091904;28;20218;-77
2021/06/14 11:23:45;;;;;;;9.75;3.58;;;24.20;52.80;;;;;;5094739;28;20746;-75
2021/06/14 11:26:11;;;;;;;4.70;3.22;;;24.20;52.70;;;;;;5093992;28;20205;-76
2021/06/14 11:28:38;;;;;;;11.10;3.88;;;24.20;52.80;;;;;;5093446;28;20178;-80
2021/06/14 11:31:13;;;;;;;7.90;3.33;;;24.20;52.80;;;;;;5093588;28;20181;-79
2021/06/14 11:33:39;;;;;;;5.70;3.35;;;24.20;52.90;;;;;;5093399;28;20181;-66
2021/06/14 11:36:24;;;;;;;3.97;2.88;;;24.30;52.90;;;;;;5092617;28;20218;-67
2021/06/14 11:38:50;;;;;;;6.97;3.35;;;24.20;52.80;;;;;;5092818;28;20185;-68
2021/06/14 11:41:29;;;;;;;7.93;3.53;;;24.20;52.90;;;;;;5093201;28;20247;-67
2021/06/14 11:44:18;;;;;;;8.68;3.22;;;24.20;52.90;;;;;;5092298;28;20303;-67
2021/06/14 11:46:43;;;;;;;4.90;3.25;;;24.20;52.80;;;;;;5092740;28;20696;-66
2021/06/14 11:49:11;;;;;;;8.77;3.63;;;24.20;52.20;;;;;;5091133;28;20181;-66
2021/06/14 11:51:37;;;;;;;6.45;3.50;;;24.20;52.50;;;;;;5092033;28;20334;-66
2021/06/14 11:54:03;;;;;;;10.07;3.85;;;24.20;52.40;;;;;;5092753;28;20675;-66
2021/06/14 11:56:29;;;;;;;5.68;3.60;;;24.20;52.20;;;;;;5092168;28;20177;-66
2021/06/14 11:58:55;;;;;;;6.28;3.47;;;24.20;52.20;;;;;;5092424;28;20181;-65
2021/06/14 12:01:40;;;;;;;4.95;3.20;;;24.20;52.00;;;;;;5074072;28;20182;-66
2021/06/14 12:04:07;;;;;;;3.75;3.35;;;24.20;51.90;;;;;;5072077;28;20202;-67
2021/06/14 12:06:42;;;;;;;5.07;3.47;;;24.30;51.90;;;;;;5086900;28;20654;-66
2021/06/14 12:09:11;;;;;;;8.57;3.28;;;24.30;51.80;;;;;;5093351;28;20184;-64
2021/06/14 12:11:37;;;;;;;6.35;3.30;;;24.30;51.80;;;;;;5095971;28;20172;-65
2021/06/14 12:14:29;;;;;;;5.72;3.80;;;24.30;51.70;;;;;;5096670;28;20266;-64
2021/06/14 12:17:07;;;;;;;4.10;3.22;;;24.30;51.60;;;;;;5094817;28;20234;-65
2021/06/14 12:19:34;;;;;;;4.28;3.10;;;24.30;51.60;;;;;;5095971;28;20228;-64
2021/06/14 12:22:04;;;;;;;5.30;3.22;;;24.30;51.50;;;;;;5096743;28;20169;-64
2021/06/14 12:24:32;;;;;;;4.53;2.83;;;24.40;51.50;;;;;;5095948;28;20209;-64
2021/06/14 12:27:05;;;;;;;6.13;3.40;;;24.40;51.60;;;;;;5096852;28;20170;-64
2021/06/14 12:29:30;;;;;;;4.85;3.33;;;24.40;51.50;;;;;;5096087;28;20555;-64
2021/06/14 12:32:07;;;;;;;5.75;3.40;;;24.50;51.50;;;;;;5095970;28;20646;-65
2021/06/14 12:34:33;;;;;;;4.05;2.90;;;24.50;51.50;;;;;;5096063;28;20643;-65
2021/06/14 12:37:08;;;;;;;5.05;3.53;;;24.50;51.40;;;;;;5096581;28;20193;-64
2021/06/14 12:39:34;;;;;;;5.55;3.60;;;24.50;51.40;;;;;;5095630;28;20227;-65
2021/06/14 12:42:00;;;;;;;4.32;3.17;;;24.60;51.40;;;;;;5096582;28;20181;-64
2021/06/14 12:44:26;;;;;;;5.50;3.35;;;24.60;51.30;;;;;;5095706;28;20597;-64
2021/06/14 12:46:51;;;;;;;4.07;3.00;;;24.60;51.30;;;;;;5095296;28;20174;-64
2021/06/14 12:49:21;;;;;;;4.40;3.13;;;24.60;51.20;;;;;;5078084;28;20256;-65
2021/06/14 12:51:49;;;;;;;4.10;3.15;;;24.70;51.20;;;;;;5096091;28;20166;-64